Time;durP1;ratioP1;P1;durP2;ratioP2;P2;SDS_P1;SDS_P2;PMS_P1;PMS_P2;Temp;Humidity;BMP_temperature;BMP_pressure;BME280_temperature;BME280_humidity;BME280_pressure;Samples;Min_cycle;Max_cycle;Signal;HPM_P1;HPM_P2
2022/06/25 00:01:15;;;;;;;1.10;0.97;;;;;;;24.62;0.00;93100.47;5048568;28;20288;-66
2022/06/25 00:04:00;;;;;;;0.73;0.73;;;;;;;24.20;0.00;93058.69;5047752;28;20713;-65
2022/06/25 00:06:44;;;;;;;1.40;0.90;;;;;;;23.99;0.00;92994.84;5047443;28;20560;-72
2022/06/25 00:09:28;;;;;;;1.60;0.80;;;;;;;24.14;30.21;93024.97;5047856;28;20205;-71
2022/06/25 00:15:15;;;;;;;2.33;1.00;;;;;;;23.44;50.01;92885.06;5053440;28;20240;-69
2022/06/25 00:17:59;;;;;;;1.27;0.80;;;;;;;23.77;50.01;92892.41;5052982;28;20765;-71
2022/06/25 00:20:44;;;;;;;1.37;1.07;;;;;;;23.26;49.88;92679.13;5049604;28;20573;-71
2022/06/25 00:23:28;;;;;;;1.13;0.90;;;;;;;23.28;49.89;92974.25;5052812;28;20209;-71
2022/06/25 00:26:12;;;;;;;0.87;0.87;;;;;;;24.33;49.88;92962.84;5053912;28;20247;-72
2022/06/25 00:28:57;;;;;;;1.93;0.70;;;;;;;23.86;49.87;93038.38;5051903;28;20272;-72
2022/06/25 00:31:41;;;;;;;1.27;0.90;;;;;;;24.18;49.91;93084.41;5047567;28;20209;-72
2022/06/25 00:34:28;;;;;;;2.87;1.00;;;;;;;24.05;49.95;93134.41;5052645;28;20194;-71
2022/06/25 00:37:12;;;;;;;3.13;0.93;;;;;;;24.19;49.99;93177.50;5052419;28;20213;-71
2022/06/25 00:39:56;;;;;;;0.93;0.90;;;;;;;24.51;50.03;93194.91;5052103;28;20232;-71
2022/06/25 00:42:45;;;;;;;2.30;1.17;;;;;;;24.33;50.06;93197.63;5049538;28;20212;-71
2022/06/25 00:45:29;;;;;;;2.77;0.90;;;;;;;24.61;50.08;93227.94;5051429;28;20556;-71
2022/06/25 00:48:13;;;;;;;0.93;0.70;;;;;;;24.12;50.09;93190.28;5055374;28;20321;-71
2022/06/25 00:51:00;;;;;;;1.03;0.87;;;;;;;24.48;50.11;93207.78;5053866;28;20205;-71
2022/06/25 00:53:46;;;;;;;1.07;1.00;;;;;;;24.04;50.11;93168.03;5048705;28;20228;-71
2022/06/25 00:56:35;;;;;;;1.67;1.10;;;;;;;24.36;50.11;93204.84;5049849;28;20197;-71
2022/06/25 00:59:26;;;;;;;0.97;0.90;;;;;;;23.76;50.08;93162.75;5047930;28;20368;-70
2022/06/25 01:02:10;;;;;;;0.80;0.77;;;;;;;23.35;50.02;93143.69;5052492;28;20212;-70
2022/06/25 01:04:55;;;;;;;2.13;0.90;;;;;;;23.65;49.96;93175.50;5052214;28;20209;-70
2022/06/25 01:07:42;;;;;;;0.80;0.80;;;;;;;23.02;49.80;93159.03;5047628;28;20253;-69
2022/06/25 01:10:27;;;;;;;2.17;0.70;;;;;;;23.11;49.59;93177.72;5049817;28;20205;-67
2022/06/25 01:13:11;;;;;;;1.10;1.00;;;;;;;23.58;49.32;93222.63;5044824;28;20201;-67
2022/06/25 01:15:55;;;;;;;0.67;0.67;;;;;;;23.17;48.78;93214.94;5050422;28;20232;-66
2022/06/25 01:18:39;;;;;;;1.70;0.70;;;;;;;23.20;47.90;93242.16;5050465;28;20279;-65
2022/06/25 01:21:23;;;;;;;2.97;1.10;;;;;;;23.61;46.54;93267.00;5043803;28;20206;-64
2022/06/25 01:24:08;;;;;;;1.53;0.80;;;;;;;23.46;43.94;93285.38;5049226;28;20640;-62
2022/06/25 01:26:52;;;;;;;1.27;0.60;;;;;;;22.57;37.69;93232.66;5049274;28;20217;-62
2022/06/25 01:29:36;;;;;;;0.70;0.70;;;;;;;23.15;29.75;93306.38;5048804;28;20237;-62
2022/06/25 01:32:20;;;;;;;1.03;0.70;;;;;;;23.56;18.23;93345.59;5044014;28;20267;-61
2022/06/25 01:35:09;;;;;;;1.70;0.80;;;;;;;22.98;2.89;93331.13;5052690;28;20201;-61
2022/06/25 01:37:53;;;;;;;2.63;0.70;;;;;;;23.67;0.00;93377.91;5050533;28;20237;-61
2022/06/25 01:40:38;;;;;;;1.40;1.07;;;;;;;23.77;0.00;93400.94;5050532;28;20252;-61
2022/06/25 01:43:22;;;;;;;1.10;0.70;;;;;;;23.52;0.00;93396.28;5045984;28;20759;-61
2022/06/25 01:46:06;;;;;;;2.50;0.70;;;;;;;24.36;0.00;93451.09;5057836;28;20206;-61
2022/06/25 01:48:50;;;;;;;0.90;0.90;;;;;;;23.68;0.00;93436.56;5051729;28;20201;-62
2022/06/25 01:51:34;;;;;;;6.90;0.90;;;;;;;24.74;0.00;93502.41;5048027;28;20248;-61
2022/06/25 01:54:18;;;;;;;1.07;0.77;;;;;;;23.99;0.00;93494.97;5051430;28;20201;-61
2022/06/25 01:57:03;;;;;;;1.40;1.00;;;;;;;24.21;0.00;93532.50;5045536;28;20277;-61
2022/06/25 01:59:48;;;;;;;0.83;0.70;;;;;;;24.10;0.00;93556.66;5050962;28;20316;-61
2022/06/25 02:02:32;;;;;;;2.50;0.90;;;;;;;24.48;0.00;93585.88;5050852;28;20589;-61
2022/06/25 02:05:18;;;;;;;1.60;0.80;;;;;;;23.47;0.00;93575.66;5044613;28;20241;-61
2022/06/25 02:08:02;;;;;;;2.03;0.90;;;;;;;23.86;0.00;93627.81;5055720;28;20202;-61
2022/06/25 02:10:47;;;;;;;2.00;0.90;;;;;;;23.95;0.00;93660.88;5051392;28;20556;-61
2022/06/25 02:13:31;;;;;;;2.50;0.60;;;;;;;23.92;0.00;93808.22;5051703;28;20202;-61
2022/06/25 02:16:16;;;;;;;2.20;0.80;;;;;;;;;;5048509;28;20217;-61
2022/06/25 02:19:00;;;;;;;1.20;0.90;;;;;;;23.74;0.00;93803.59;5043464;28;20237;-61
2022/06/25 02:21:44;;;;;;;1.77;0.60;;;;;;;24.04;0.00;93811.31;5046632;28;20208;-61
2022/06/25 02:24:28;;;;;;;0.63;0.63;;;;;;;24.38;0.00;93803.38;5049699;28;20227;-61
2022/06/25 02:27:12;;;;;;;1.20;0.80;;;;;;;24.58;0.00;93809.47;5048291;28;20205;-61
2022/06/25 02:29:56;;;;;;;3.70;0.70;;;;;;;24.57;0.00;93815.88;5047581;28;20201;-61
2022/06/25 02:32:42;;;;;;;1.87;0.90;;;;;;;24.14;0.00;93817.22;5049513;28;20213;-60
2022/06/25 02:35:26;;;;;;;2.63;0.70;;;;;;;24.37;0.00;93822.00;5049690;28;20725;-60
2022/06/25 02:38:11;;;;;;;0.67;0.67;;;;;;;24.56;0.00;93818.03;5048821;28;20652;-60
2022/06/25 02:40:56;;;;;;;3.20;0.97;;;;;;;24.50;0.00;93812.19;5057620;28;20601;-61
2022/06/25 02:43:43;;;;;;;0.90;0.90;;;;;;;24.70;0.00;93811.81;5048602;28;20280;-60
2022/06/25 02:46:45;;;;;;;1.23;1.10;;;;;;;24.32;0.00;93820.47;5051081;28;20201;-60
2022/06/25 02:49:30;;;;;;;1.80;0.80;;;;;;;24.77;0.00;93821.22;5052489;28;20806;-60
2022/06/25 02:52:14;;;;;;;1.40;0.70;;;;;;;24.63;0.00;93818.16;5049232;28;20201;-60
2022/06/25 02:54:58;;;;;;;0.83;0.70;;;;;;;24.27;0.00;93818.94;5042313;28;20981;-60
2022/06/25 03:00:56;;;;;;;2.07;0.73;;;;;;;24.08;0.00;93817.84;5046714;28;20282;-60
2022/06/25 03:03:40;;;;;;;0.93;0.70;;;;;;;24.45;0.00;93816.41;5046578;28;20221;-61
2022/06/25 03:06:25;;;;;;;1.00;0.73;;;;;;;24.21;0.00;93818.09;5047184;28;20340;-60
2022/06/25 03:09:09;;;;;;;1.50;0.90;;;;;;;24.26;0.00;93826.06;5046715;28;20210;-61
2022/06/25 03:11:53;;;;;;;2.53;0.90;;;;;;;23.92;0.00;93822.53;5048328;28;20232;-60
2022/06/25 03:14:38;;;;;;;0.80;0.80;;;;;;;23.76;0.00;93826.53;5049507;28;20618;-60
2022/06/25 03:17:22;;;;;;;0.90;0.70;;;;;;;23.83;6.91;93824.50;5048619;28;20236;-60
2022/06/25 03:20:25;;;;;;;2.13;0.90;;;;;;;23.81;100.00;93832.34;5045386;28;20205;-60
2022/06/25 03:23:13;;;;;;;1.57;0.80;;;;;;;23.58;100.00;93834.72;5047386;28;20358;-60
2022/06/25 03:26:00;;;;;;;0.87;0.87;;;;;;;24.00;100.00;93837.03;5028161;28;20201;-60
2022/06/25 03:28:44;;;;;;;0.67;0.67;;;;;;;23.20;100.00;93831.03;5048651;28;20214;-60
2022/06/25 03:31:31;;;;;;;3.10;1.10;;;;;;;22.72;100.00;93831.31;5043570;28;20289;-60
2022/06/25 03:34:19;;;;;;;0.90;0.90;;;;;;;23.13;100.00;93838.00;5052598;28;20196;-60
2022/06/25 03:37:07;;;;;;;0.57;0.57;;;;;;;24.17;100.00;93830.19;5049479;28;20258;-60
2022/06/25 03:39:51;;;;;;;1.37;1.27;;;;;;;23.64;100.00;93832.00;5037725;28;20257;-60
2022/06/25 03:42:36;;;;;;;1.10;0.70;;;;;;;22.96;100.00;93846.19;5050532;28;20612;-60
2022/06/25 03:45:26;;;;;;;0.70;0.70;;;;;;;23.19;100.00;93841.00;5048895;28;20197;-60
2022/06/25 03:48:10;;;;;;;0.90;0.90;;;;;;;23.79;100.00;93842.34;5048015;28;20705;-60
2022/06/25 03:51:13;;;;;;;1.17;0.83;;;;;;;23.22;100.00;93853.91;5045094;28;20213;-60
2022/06/25 03:53:58;;;;;;;1.07;0.80;;;;;;;23.77;100.00;93858.72;5049058;28;20268;-60
2022/06/25 03:56:42;;;;;;;2.80;0.97;;;;;;;23.75;100.00;93853.69;5046631;28;20233;-60
2022/06/25 03:59:28;;;;;;;2.83;1.00;;;;;;;23.53;100.00;93856.06;5051946;28;20614;-59
2022/06/25 04:02:17;;;;;;;1.77;0.93;;;;;;;23.10;100.00;93856.50;5049302;28;20247;-59
2022/06/25 04:05:20;;;;;;;1.17;1.13;;;;;;;23.57;100.00;93856.19;5048202;28;20193;-59
2022/06/25 04:08:05;;;;;;;1.07;1.07;;;;;;;23.28;100.00;93859.78;5049291;28;20260;-59
2022/06/25 04:10:50;;;;;;;1.20;1.00;;;;;;;23.63;100.00;93859.16;5045708;28;20314;-59
2022/06/25 04:13:35;;;;;;;2.40;1.23;;;;;;;23.48;100.00;93860.25;5047333;28;20217;-60
2022/06/25 04:16:18;;;;;;;1.20;1.00;;;;;;;22.93;100.00;93864.69;5048622;28;20201;-60
2022/06/25 04:19:03;;;;;;;1.00;1.00;;;;;;;23.08;100.00;93867.91;5047759;28;20198;-59
2022/06/25 04:21:51;;;;;;;4.27;1.47;;;;;;;24.01;100.00;93872.81;5048561;28;20205;-59
2022/06/25 04:24:37;;;;;;;1.13;1.00;;;;;;;23.85;100.00;93872.47;5046509;28;20655;-59
2022/06/25 04:30:24;;;;;;;0.60;0.60;;;;;;;23.98;100.00;93872.06;5046754;28;20240;-59
2022/06/25 04:33:10;;;;;;;2.90;0.83;;;;;;;23.47;100.00;93884.53;5047433;28;20248;-59
2022/06/25 04:36:06;;;;;;;0.90;0.63;;;;;;;23.28;100.00;93877.66;5046819;28;20235;-59
2022/06/25 04:39:04;;;;;;;1.20;0.70;;;;;;;23.47;100.00;93875.22;5042845;28;20229;-59
2022/06/25 04:41:49;;;;;;;0.83;0.77;;;;;;;23.50;100.00;93883.19;5041531;28;20302;-60
2022/06/25 04:44:42;;;;;;;3.13;0.80;;;;;;;23.62;100.00;93886.31;5046880;28;20213;-60
2022/06/25 04:47:26;;;;;;;0.70;0.60;;;;;;;23.97;100.00;93879.19;5046763;28;20209;-60
2022/06/25 04:50:22;;;;;;;1.33;0.50;;;;;;;24.21;100.00;93884.69;5046115;28;21180;-59
2022/06/25 04:53:06;;;;;;;0.73;0.50;;;;;;;24.15;100.00;93888.13;5048405;28;20261;-60
2022/06/25 04:55:50;;;;;;;0.97;0.67;;;;;;;24.36;100.00;93892.16;5048709;28;20204;-59
2022/06/25 04:58:34;;;;;;;1.13;0.60;;;;;;;24.31;100.00;93895.63;5047014;28;20237;-59
2022/06/25 05:01:41;;;;;;;1.63;0.60;;;;;;;24.88;100.00;93900.25;5047735;28;20201;-60
2022/06/25 05:04:25;;;;;;;1.13;0.50;;;;;;;24.34;100.00;93897.84;5049952;28;20230;-59
2022/06/25 05:07:09;;;;;;;0.57;0.53;;;;;;;24.58;100.00;93901.16;5044067;28;20210;-59
2022/06/25 05:09:53;;;;;;;0.30;0.30;;;;;;;24.84;100.00;93906.63;5043658;28;20282;-60
2022/06/25 05:15:43;;;;;;;0.80;0.50;;;;;;;25.32;97.12;93911.75;5048519;28;20255;-60
2022/06/25 05:18:28;;;;;;;1.70;0.60;;;;;;;25.52;100.00;93911.34;5050092;28;20633;-59
2022/06/25 05:21:12;;;;;;;0.50;0.50;;;;;;;25.15;72.11;93904.31;5049743;28;20271;-60
2022/06/25 05:23:56;;;;;;;0.30;0.30;;;;;;;25.82;54.88;93911.06;5041124;28;20369;-60
2022/06/25 05:26:40;;;;;;;0.87;0.57;;;;;;;26.10;55.18;93906.47;5048551;28;20197;-60
2022/06/25 05:29:24;;;;;;;0.30;0.30;;;;;;;25.51;53.40;93915.63;5050006;28;20572;-60
2022/06/25 05:32:08;;;;;;;0.40;0.40;;;;;;;27.11;50.08;93909.00;5051450;28;20260;-60
2022/06/25 05:34:54;;;;;;;1.10;0.57;;;;;;;27.66;47.76;93913.78;5049782;28;20236;-60
2022/06/25 05:37:38;;;;;;;0.60;0.50;;;;;;;26.80;50.56;93905.81;5044789;28;20237;-63
2022/06/25 05:40:22;;;;;;;0.50;0.50;;;;;;;27.51;49.26;93909.38;5050077;28;20197;-62
2022/06/25 05:43:07;;;;;;;0.40;0.40;;;;;;;28.02;48.35;93912.56;5045857;28;20196;-62
2022/06/25 05:45:51;;;;;;;5.60;0.50;;;;;;;26.52;49.76;93922.78;5046435;28;20209;-63
2022/06/25 05:48:35;;;;;;;0.60;0.50;;;;;;;27.75;48.67;93921.06;5046230;28;20765;-63
2022/06/25 05:51:19;;;;;;;1.40;0.30;;;;;;;27.30;49.63;93922.13;5051130;28;20205;-62
2022/06/25 05:54:03;;;;;;;0.70;0.67;;;;;;;26.56;49.55;93922.81;5050271;28;20595;-62
2022/06/25 05:56:47;;;;;;;3.07;0.60;;;;;;;27.18;49.13;93922.00;5048939;28;20281;-62
2022/06/25 05:59:31;;;;;;;4.90;0.60;;;;;;;27.76;48.03;93925.38;5046942;28;20666;-62
2022/06/25 06:02:16;;;;;;;0.43;0.43;;;;;;;28.41;47.53;93927.91;5052218;28;20698;-63
2022/06/25 06:05:00;;;;;;;0.43;0.43;;;;;;;27.65;48.74;93929.59;5050650;28;20205;-62
2022/06/25 06:07:44;;;;;;;0.77;0.50;;;;;;;28.43;47.34;93925.03;5052431;28;20275;-63
2022/06/25 06:10:28;;;;;;;1.80;0.67;;;;;;;27.59;49.17;93932.44;5053631;28;20219;-62
2022/06/25 06:13:12;;;;;;;1.93;0.60;;;;;;;27.45;47.49;93938.09;5045295;28;20201;-63
2022/06/25 06:15:58;;;;;;;0.63;0.53;;;;;;;27.33;49.14;93940.88;5047354;28;20710;-62
2022/06/25 06:18:42;;;;;;;1.17;0.60;;;;;;;26.71;50.13;93941.66;5039825;28;20433;-62
2022/06/25 06:21:26;;;;;;;0.50;0.50;;;;;;;27.66;49.06;93942.56;5049644;28;20205;-62
2022/06/25 06:24:11;;;;;;;6.60;0.70;;;;;;;26.87;50.99;93943.97;5045093;28;20209;-63
2022/06/25 06:26:55;;;;;;;2.23;0.77;;;;;;;26.83;49.72;93947.56;5048764;28;20741;-63
2022/06/25 06:29:39;;;;;;;0.93;0.50;;;;;;;27.97;49.03;93942.78;5049051;28;20690;-63
2022/06/25 06:32:23;;;;;;;0.90;0.40;;;;;;;26.68;52.14;93954.56;5048026;28;20274;-63
2022/06/25 06:35:07;;;;;;;2.63;0.80;;;;;;;27.40;50.51;93944.50;5048245;28;20687;-63
2022/06/25 06:37:51;;;;;;;1.33;0.63;;;;;;;27.83;47.93;93949.19;5046141;28;20348;-61
2022/06/25 06:40:35;;;;;;;0.73;0.70;;;;;;;27.65;48.81;93952.63;5050746;28;20280;-61
2022/06/25 06:43:19;;;;;;;1.87;0.70;;;;;;;27.63;50.19;93955.53;5051676;28;20202;-62
2022/06/25 06:46:03;;;;;;;3.53;1.00;;;;;;;27.22;50.49;93947.97;5046751;28;20237;-62
2022/06/25 06:48:47;;;;;;;1.83;0.60;;;;;;;26.63;52.31;93958.09;5050253;28;20233;-62
2022/06/25 06:51:31;;;;;;;2.70;0.60;;;;;;;28.37;49.24;93948.78;5047802;28;20275;-62
2022/06/25 06:54:15;;;;;;;1.70;0.60;;;;;;;27.03;51.20;93955.69;5048677;28;20302;-62
2022/06/25 06:56:59;;;;;;;3.70;0.70;;;;;;;28.33;48.52;93957.41;5044989;28;23973;-62
2022/06/25 06:59:43;;;;;;;0.60;0.50;;;;;;;28.49;48.08;93951.72;5045301;28;20247;-62
2022/06/25 07:02:27;;;;;;;4.23;0.90;;;;;;;27.73;49.34;93949.09;5046308;28;20251;-62
2022/06/25 07:05:11;;;;;;;1.70;0.57;;;;;;;28.76;46.91;93937.44;5045248;28;20229;-62
2022/06/25 07:07:55;;;;;;;0.40;0.40;;;;;;;28.67;45.60;93942.44;5038032;28;20239;-62
2022/06/25 07:10:39;;;;;;;0.90;0.40;;;;;;;28.61;46.94;93939.53;5045254;28;20245;-61
2022/06/25 07:13:23;;;;;;;0.52;0.40;;;;;;;27.98;47.53;93938.47;5035963;28;20228;-61
2022/06/25 07:16:07;;;;;;;0.60;0.57;;;;;;;29.47;45.97;93937.56;5039540;28;20197;-61
2022/06/25 07:18:52;;;;;;;0.30;0.30;;;;;;;28.91;45.20;93941.78;5043292;28;20277;-61
2022/06/25 07:21:36;;;;;;;0.77;0.60;;;;;;;29.48;44.36;93936.13;5051998;28;20314;-61
2022/06/25 07:24:21;;;;;;;2.70;0.40;;;;;;;29.53;44.44;93934.69;5048004;28;20240;-61
2022/06/25 07:27:06;;;;;;;0.88;0.40;;;;;;;29.88;43.51;93936.09;5038864;28;20210;-61
2022/06/25 07:29:50;;;;;;;0.70;0.38;;;;;;;29.66;43.52;93924.56;5046960;28;20198;-61
2022/06/25 07:32:34;;;;;;;0.85;0.40;;;;;;;30.47;42.25;93927.31;5040737;28;20683;-61
2022/06/25 07:35:18;;;;;;;0.43;0.20;;;;;;;30.73;43.20;93930.13;5035878;28;20205;-61
2022/06/25 07:38:02;;;;;;;2.38;0.30;;;;;;;30.56;42.76;93928.72;5040131;28;20647;-61
2022/06/25 07:40:46;;;;;;;1.45;0.47;;;;;;;29.51;43.04;93923.84;5044546;28;20259;-61
2022/06/25 07:43:30;;;;;;;0.20;0.20;;;;;;;29.75;43.61;93923.09;5037033;28;20218;-61
2022/06/25 07:46:14;;;;;;;2.47;0.43;;;;;;;30.89;41.14;93924.22;5044530;28;20210;-61
2022/06/25 07:48:58;;;;;;;2.53;0.30;;;;;;;30.04;41.35;93915.16;5046724;28;20618;-61
2022/06/25 07:51:57;;;;;;;0.95;0.30;;;;;;;31.31;38.61;93929.06;5040416;28;20713;-61
2022/06/25 07:54:41;;;;;;;0.10;0.10;;;;;;;32.59;37.25;93924.97;5043890;28;20205;-61
2022/06/25 07:57:26;;;;;;;2.75;0.50;;;;;;;29.23;41.81;93924.53;5043487;28;20233;-61
2022/06/25 08:00:11;;;;;;;0.25;0.22;;;;;;;31.35;39.66;93920.31;5045930;28;20291;-61
2022/06/25 08:02:58;;;;;;;0.20;0.20;;;;;;;32.84;37.58;93922.50;5038601;28;20341;-64
2022/06/25 08:05:42;;;;;;;0.32;0.30;;;;;;;32.67;36.97;93921.28;5044306;28;20198;-62
2022/06/25 08:08:26;;;;;;;0.32;0.20;;;;;;;32.16;38.74;93918.94;5039321;28;20312;-62
2022/06/25 08:11:11;;;;;;;1.33;0.60;;;;;;;32.45;36.82;93922.97;5043962;28;20197;-62
2022/06/25 08:13:55;;;;;;;0.55;0.40;;;;;;;31.22;37.28;93918.28;5046131;28;20205;-62
2022/06/25 08:16:39;;;;;;;1.05;0.30;;;;;;;29.85;41.14;93914.44;5037223;28;20589;-62
2022/06/25 08:19:23;;;;;;;0.20;0.20;;;;;;;30.34;39.46;93925.91;5042160;28;20233;-62
2022/06/25 08:22:07;;;;;;;0.20;0.20;;;;;;;32.62;36.77;93919.88;5042126;28;20205;-62
2022/06/25 08:24:51;;;;;;;0.20;0.20;;;;;;;31.49;36.86;93910.81;5043658;28;20209;-62
2022/06/25 08:27:49;;;;;;;0.20;0.20;;;;;;;32.07;36.78;93911.75;5045694;28;20208;-62
2022/06/25 08:30:33;;;;;;;0.70;0.32;;;;;;;32.92;36.12;93917.31;5048087;28;20651;-62
2022/06/25 08:33:17;;;;;;;0.30;0.30;;;;;;;31.57;36.64;93922.34;5053274;28;20204;-62
2022/06/25 08:36:01;;;;;;;0.32;0.20;;;;;;;33.57;33.53;93915.69;5053683;28;20200;-62
2022/06/25 08:38:46;;;;;;;0.30;0.30;;;;;;;31.81;35.57;93917.81;5046890;28;20309;-62
2022/06/25 08:41:30;;;;;;;0.20;0.20;;;;;;;33.79;32.39;93912.41;5041100;28;20237;-62
2022/06/25 08:44:14;;;;;;;0.60;0.20;;;;;;;32.72;35.12;93911.06;5049472;28;20316;-62
2022/06/25 08:46:58;;;;;;;0.40;0.38;;;;;;;34.17;32.04;93919.03;5050575;28;20304;-62
2022/06/25 08:49:42;;;;;;;0.98;0.30;;;;;;;34.07;31.33;93917.72;5046218;28;20806;-63
2022/06/25 08:52:27;;;;;;;0.40;0.40;;;;;;;34.29;31.35;93913.00;5052050;28;20260;-63
2022/06/25 08:55:36;;;;;;;0.32;0.20;;;;;;;35.59;31.65;93910.97;5052885;28;20212;-63
2022/06/25 08:58:21;;;;;;;0.43;0.30;;;;;;;33.01;33.27;93909.22;5046248;28;20221;-63
2022/06/25 09:01:05;;;;;;;0.85;0.40;;;;;;;33.61;33.32;93901.78;5041025;28;20232;-63
2022/06/25 09:03:49;;;;;;;0.47;0.30;;;;;;;33.26;33.68;93904.53;5043132;28;20257;-63
2022/06/25 09:06:33;;;;;;;0.30;0.30;;;;;;;35.19;31.98;93900.94;5045724;28;20197;-63
2022/06/25 09:09:17;;;;;;;1.02;0.30;;;;;;;35.67;30.50;93904.97;5051128;28;20317;-63
2022/06/25 09:12:10;;;;;;;2.17;0.30;;;;;;;35.76;29.72;93905.47;5049738;28;20267;-63
2022/06/25 09:14:54;;;;;;;0.95;0.20;;;;;;;36.06;29.67;93901.78;5049103;28;20335;-63
2022/06/25 09:17:47;;;;;;;0.75;0.50;;;;;;;35.13;28.83;93904.00;5051288;28;20804;-63
2022/06/25 09:20:31;;;;;;;0.90;0.63;;;;;;;35.90;28.65;93905.13;5044247;28;20251;-64
2022/06/25 09:23:15;;;;;;;0.20;0.20;;;;;;;36.99;26.66;93905.06;5045841;28;20237;-64
2022/06/25 09:26:05;;;;;;;1.00;0.30;;;;;;;38.46;25.78;93895.94;5050355;28;20232;-64
2022/06/25 09:28:49;;;;;;;0.88;0.30;;;;;;;38.36;25.67;93905.81;5045765;28;20209;-64
2022/06/25 09:31:37;;;;;;;1.60;0.30;;;;;;;37.50;26.50;93904.25;5045306;28;20205;-64
2022/06/25 09:34:33;;;;;;;1.02;0.20;;;;;;;38.21;26.93;93901.22;5053006;28;20209;-64
2022/06/25 09:37:24;;;;;;;0.82;0.38;;;;;;;37.30;27.49;93889.56;5049528;28;20656;-63
2022/06/25 09:40:09;;;;;;;0.30;0.20;;;;;;;36.47;27.66;93896.34;5049225;28;20202;-64
2022/06/25 09:42:53;;;;;;;0.50;0.30;;;;;;;38.62;26.16;93895.41;5044792;28;20210;-64
2022/06/25 09:45:38;;;;;;;0.30;0.30;;;;;;;38.69;25.01;93893.69;5044447;28;20232;-64
2022/06/25 09:48:27;;;;;;;0.22;0.20;;;;;;;38.54;25.30;93886.19;5045895;28;20194;-64
2022/06/25 09:51:16;;;;;;;0.15;0.15;;;;;;;39.23;24.04;93881.41;5051076;28;20201;-64
2022/06/25 09:54:02;;;;;;;0.28;0.20;;;;;;;38.50;25.47;93884.13;5046874;28;20217;-64
2022/06/25 09:56:46;;;;;;;1.10;0.40;;;;;;;39.55;24.48;93885.31;5046157;28;20220;-64
2022/06/25 09:59:33;;;;;;;2.55;0.25;;;;;;;39.63;22.92;93879.81;5045728;28;20208;-65
2022/06/25 10:02:19;;;;;;;0.43;0.40;;;;;;;39.51;23.33;93886.16;5051486;28;20308;-64
2022/06/25 10:05:04;;;;;;;0.30;0.30;;;;;;;38.44;24.64;93869.69;5049664;28;20592;-65
2022/06/25 10:07:59;;;;;;;0.60;0.28;;;;;;;37.09;25.81;93872.63;5047519;28;20220;-64
2022/06/25 10:10:46;;;;;;;0.20;0.20;;;;;;;36.69;27.54;93876.75;5048553;28;20200;-63
2022/06/25 10:13:31;;;;;;;0.20;0.20;;;;;;;35.62;28.92;93863.50;5044507;28;20213;-64
2022/06/25 10:16:18;;;;;;;0.28;0.20;;;;;;;35.72;28.20;93864.78;5050884;28;20263;-64
2022/06/25 10:19:04;;;;;;;1.08;0.30;;;;;;;37.50;26.23;93865.53;5045200;28;20222;-64
2022/06/25 10:21:48;;;;;;;1.55;0.32;;;;;;;38.58;25.91;93863.31;5043602;28;20305;-64
2022/06/25 10:24:34;;;;;;;0.35;0.25;;;;;;;37.81;27.08;93868.91;5054621;28;20260;-65
2022/06/25 10:27:20;;;;;;;0.30;0.20;;;;;;;39.14;26.54;93862.69;5049344;28;20280;-65
2022/06/25 10:30:05;;;;;;;0.20;0.20;;;;;;;40.23;22.57;93870.03;5049301;28;20213;-64
2022/06/25 10:32:52;;;;;;;1.95;0.35;;;;;;;39.86;23.26;93859.09;5047211;28;20584;-64
2022/06/25 10:35:39;;;;;;;1.40;0.28;;;;;;;37.79;24.71;93860.19;5042318;28;20623;-65
2022/06/25 10:38:25;;;;;;;2.80;0.60;;;;;;;40.14;24.19;93845.41;5048244;28;20222;-67
2022/06/25 10:44:20;;;;;;;0.20;0.20;;;;;;;38.16;25.48;93850.19;5038174;28;20205;-65
2022/06/25 10:47:10;;;;;;;0.20;0.20;;;;;;;38.00;24.40;93846.31;5041396;28;20248;-65
2022/06/25 10:50:19;;;;;;;0.50;0.22;;;;;;;37.01;25.48;93846.59;5051779;28;20201;-65
2022/06/25 10:53:05;;;;;;;0.20;0.20;;;;;;;37.51;25.22;93843.56;5042582;28;20197;-65
2022/06/25 10:55:49;;;;;;;0.28;0.22;;;;;;;37.42;24.52;93842.41;5040986;28;20294;-66
2022/06/25 10:58:46;;;;;;;0.50;0.30;;;;;;;38.63;23.46;93844.09;5048386;28;20252;-65
2022/06/25 11:01:33;;;;;;;0.20;0.20;;;;;;;39.58;22.94;93837.47;5039036;28;20252;-65
2022/06/25 11:04:17;;;;;;;0.65;0.20;;;;;;;38.97;24.55;93844.31;5046935;28;20249;-66
2022/06/25 11:07:11;;;;;;;2.83;0.30;;;;;;;37.58;24.41;93830.22;5052704;28;20272;-66
2022/06/25 11:10:01;;;;;;;0.47;0.30;;;;;;;38.73;23.56;93828.34;5041108;28;20961;-67
2022/06/25 11:12:48;;;;;;;1.20;0.20;;;;;;;40.24;21.86;93830.34;5044123;28;20205;-67
2022/06/25 11:15:39;;;;;;;0.60;0.28;;;;;;;42.53;19.50;93834.06;5052427;28;20208;-66
2022/06/25 11:18:23;;;;;;;0.10;0.10;;;;;;;43.36;19.93;93835.47;5043736;28;20225;-68
2022/06/25 11:21:07;;;;;;;0.50;0.35;;;;;;;43.61;18.52;93819.34;5035762;28;20539;-69
2022/06/25 11:24:12;;;;;;;2.42;0.45;;;;;;;41.66;19.96;93823.78;5048876;28;20273;-69
2022/06/25 11:30:00;;;;;;;0.70;0.32;;;;;;;43.80;18.83;93819.72;5039770;28;20220;-69
2022/06/25 11:32:45;;;;;;;0.28;0.13;;;;;;;42.62;18.82;93817.38;5051476;28;20276;-67
2022/06/25 11:35:41;;;;;;;0.28;0.25;;;;;;;39.05;21.87;93805.91;5045179;28;20260;-67
2022/06/25 11:38:25;;;;;;;1.67;0.30;;;;;;;38.85;22.73;93811.03;5049863;28;20590;-66
2022/06/25 11:41:26;;;;;;;0.50;0.38;;;;;;;39.50;22.10;93808.47;5048169;28;20599;-69
2022/06/25 11:44:10;;;;;;;0.25;0.20;;;;;;;41.13;20.85;93808.66;5049553;28;20200;-69
2022/06/25 11:46:54;;;;;;;2.60;0.30;;;;;;;40.13;21.39;93802.88;5047851;28;20205;-69
2022/06/25 11:49:41;;;;;;;0.30;0.13;;;;;;;43.09;17.95;93809.66;5044640;28;20248;-69
2022/06/25 11:52:25;;;;;;;1.52;0.20;;;;;;;41.52;19.35;93809.75;5043481;28;20311;-70
2022/06/25 11:55:11;;;;;;;0.68;0.25;;;;;;;42.65;19.02;93798.03;5048586;28;20677;-70
2022/06/25 11:57:58;;;;;;;1.65;0.40;;;;;;;41.35;19.49;93797.34;5046645;28;20230;-70
2022/06/25 12:00:44;;;;;;;0.80;0.28;;;;;;;41.14;19.22;93798.31;5048115;28;20248;-69
2022/06/25 12:03:29;;;;;;;0.10;0.10;;;;;;;45.96;15.95;93798.91;5046944;28;20224;-70
2022/06/25 12:06:14;;;;;;;0.52;0.32;;;;;;;47.29;15.11;93807.38;5045666;28;20770;-70
2022/06/25 12:08:58;;;;;;;0.60;0.20;;;;;;;46.39;16.34;93794.47;5040906;28;20200;-70
2022/06/25 12:11:51;;;;;;;0.20;0.20;;;;;;;44.80;18.14;93790.84;5046622;28;20225;-70
2022/06/25 12:14:36;;;;;;;0.20;0.20;;;;;;;43.67;18.28;93780.63;5044376;28;20200;-70
2022/06/25 12:17:20;;;;;;;1.88;0.30;;;;;;;46.48;16.07;93789.38;5050306;28;20289;-70
2022/06/25 12:20:11;;;;;;;0.30;0.20;;;;;;;42.82;19.64;93779.50;5046292;28;20563;-70
2022/06/25 12:22:57;;;;;;;0.65;0.20;;;;;;;44.99;18.25;93774.06;5047199;28;20193;-69
2022/06/25 12:25:41;;;;;;;0.30;0.20;;;;;;;42.78;19.52;93776.78;5048944;28;20289;-70
2022/06/25 12:28:39;;;;;;;1.55;0.50;;;;;;;44.55;18.36;93770.94;5043000;28;20208;-70
2022/06/25 12:31:23;;;;;;;0.20;0.20;;;;;;;45.00;17.96;93772.50;5041740;28;20682;-70
2022/06/25 12:34:09;;;;;;;0.80;0.30;;;;;;;45.92;17.66;93766.59;5047537;28;20205;-70
2022/06/25 12:36:54;;;;;;;0.38;0.20;;;;;;;46.91;16.17;93771.56;5048919;28;20188;-70
2022/06/25 12:39:44;;;;;;;0.43;0.30;;;;;;;47.19;16.56;93769.53;5037497;28;20204;-69
2022/06/25 12:42:33;;;;;;;0.65;0.25;;;;;;;45.74;17.14;93760.31;5043537;28;20205;-70
2022/06/25 12:45:20;;;;;;;0.30;0.30;;;;;;;47.78;16.38;93765.22;5048412;28;20189;-70
2022/06/25 12:48:06;;;;;;;0.40;0.20;;;;;;;49.22;14.90;93760.00;5050337;28;20251;-70
2022/06/25 12:50:50;;;;;;;0.20;0.20;;;;;;;49.95;14.63;93753.97;5039841;28;20499;-70
2022/06/25 12:53:35;;;;;;;0.38;0.25;;;;;;;46.24;16.56;93746.59;5043260;28;20233;-71
2022/06/25 12:56:19;;;;;;;1.45;0.20;;;;;;;46.02;16.38;93745.88;5038722;28;20208;-70
2022/06/25 12:59:06;;;;;;;0.68;0.20;;;;;;;46.75;15.38;93740.09;5042334;28;20245;-70
2022/06/25 13:01:50;;;;;;;1.25;0.40;;;;;;;44.53;16.97;93723.75;5046611;28;20189;-70
2022/06/25 13:04:34;;;;;;;0.32;0.30;;;;;;;45.68;15.93;93733.34;5044923;28;20301;-70
2022/06/25 13:07:19;;;;;;;2.53;0.40;;;;;;;46.48;16.21;93730.06;5049745;28;20576;-71
2022/06/25 13:10:03;;;;;;;1.98;0.30;;;;;;;48.13;14.81;93739.56;5049112;28;20302;-72
2022/06/25 13:12:50;;;;;;;0.50;0.30;;;;;;;48.12;14.23;93732.91;5043836;28;20364;-70
2022/06/25 13:15:35;;;;;;;0.63;0.43;;;;;;;49.09;14.20;93729.81;5047306;28;20200;-70
2022/06/25 13:18:19;;;;;;;0.38;0.22;;;;;;;46.69;16.64;93736.00;5052942;28;20260;-70
2022/06/25 13:21:03;;;;;;;2.28;0.32;;;;;;;48.37;15.96;93728.03;5047920;28;20299;-70